MOL Gateway — CQHN — position and weather

sailwx.info

Track history (hours):
 
Tides and Currents Weather Stations Pressure Air Temp Water Temp Dewpoint Dewpoint Depression Visibility Wind Speed Wind Dir Waves Ship Positions

MOL Gateway

Last reported at 2017-Nov-20 00:29 UTC. Time now 2017-Nov-22 10:45 UTC.
Position N 01°16' E 103°46'.

Length 275 m; draft 9.7 m.

Type: Ship (hazmat cat A). MMSI: 255805589.

Date/timePositionNaut miles runAvg speedWind from/ knotsBaromVisibWave heightAir tempDewpointWater temp
2017-Nov-20 00:29N 01°16' E 103°46'0 0.0
2017-Nov-19 23:58N 01°16' E 103°46'0 0.0
2017-Nov-19 23:27N 01°16' E 103°46'0 0.0
2017-Nov-19 22:55N 01°16' E 103°46'0 0.0
2017-Nov-19 22:28N 01°16' E 103°46'0 0.0
2017-Nov-19 21:59N 01°16' E 103°46'0 0.0
2017-Nov-19 21:27N 01°16' E 103°46'0 0.0
2017-Nov-19 20:58N 01°16' E 103°46'0 0.0
2017-Nov-19 20:28N 01°16' E 103°46'0 0.0
2017-Nov-19 20:00N 01°16' E 103°46'0 0.0
2017-Nov-19 19:30N 01°16' E 103°46'0 0.0
2017-Nov-19 18:59N 01°16' E 103°46'0 0.0
2017-Nov-19 18:30N 01°16' E 103°46'0 0.0
2017-Nov-19 18:00N 01°16' E 103°46'0 0.0
2017-Nov-19 17:28N 01°16' E 103°46'0 0.0
2017-Nov-19 16:55N 01°16' E 103°46'0 0.0
2017-Nov-19 16:28N 01°16' E 103°46'0 0.0
2017-Nov-19 15:58N 01°16' E 103°46'0 0.0
2017-Nov-19 15:28N 01°16' E 103°46'0 0.0
2017-Nov-19 14:59N 01°16' E 103°46'0 0.0
2017-Nov-19 14:26N 01°16' E 103°46'0 0.0
2017-Nov-19 13:56N 01°16' E 103°46'0 0.0
2017-Nov-19 13:31N 01°16' E 103°46'0 0.0
2017-Nov-19 12:59N 01°16' E 103°46'0 0.0
2017-Nov-19 12:28N 01°16' E 103°46'0 0.3
2017-Nov-19 12:01N 01°16' E 103°47'2 4.0
2017-Nov-19 11:30N 01°15' E 103°45'510.1
2017-Nov-19 11:00N 01°13' E 103°41'5 9.7
2017-Nov-19 10:29N 01°12' E 103°35'612.0
2017-Nov-19 10:00N 01°10' E 103°30'917.9
2017-Nov-19 09:30N 01°14' E 103°22'13 0.3
2017-Nov-17 17:07N 01°23' E 103°13'1019.2
2017-Nov-17 16:36N 01°17' E 103°21'218.5
2017-Nov-17 16:30N 01°16' E 103°22'917.9
2017-Nov-17 16:00N 01°13' E 103°31'713.8
2017-Nov-17 15:30N 01°12' E 103°38'3 5.7
2017-Nov-17 15:00N 01°13' E 103°40'510.3
2017-Nov-17 14:30N 01°16' E 103°44'2 5.0
2017-Nov-17 14:00N 01°16' E 103°47'0 0.5
2017-Nov-17 13:30N 01°16' E 103°47'0 0.0
2017-Nov-17 12:59N 01°16' E 103°47'0 0.0
2017-Nov-17 12:30N 01°16' E 103°47'0 0.0
2017-Nov-17 12:00N 01°16' E 103°47'0 0.0
2017-Nov-17 11:26N 01°16' E 103°47'0 0.0
2017-Nov-17 10:58N 01°16' E 103°47'0 0.0
2017-Nov-17 10:28N 01°16' E 103°47'0 0.0
2017-Nov-17 10:00N 01°16' E 103°47'0 0.0
2017-Nov-17 09:28N 01°16' E 103°47'0 0.0
2017-Nov-17 09:00N 01°16' E 103°47'0 0.0
2017-Nov-17 08:31N 01°16' E 103°47'0 0.0
2017-Nov-17 07:30N 01°16' E 103°47'0 0.0
2017-Nov-17 06:56N 01°16' E 103°47'0 0.0
2017-Nov-17 06:28N 01°16' E 103°47'0 0.0
2017-Nov-17 05:58N 01°16' E 103°47'0 0.0
2017-Nov-17 05:30N 01°16' E 103°47'0 0.0
2017-Nov-17 04:59N 01°16' E 103°47'0 0.0
2017-Nov-17 04:29N 01°16' E 103°47'0 0.0
2017-Nov-17 03:50N 01°16' E 103°47'0 0.0
2017-Nov-17 03:28N 01°16' E 103°47'0 0.0
2017-Nov-17 02:57N 01°16' E 103°47'0 0.0
2017-Nov-17 02:30N 01°16' E 103°47'0 0.0
2017-Nov-17 01:59N 01°16' E 103°47'0 0.0
2017-Nov-17 01:30N 01°16' E 103°47'0 0.0
2017-Nov-17 00:58N 01°16' E 103°47'0 0.0
2017-Nov-17 00:30N 01°16' E 103°47'0 0.0
2017-Nov-16 23:56N 01°16' E 103°47'0 0.0
2017-Nov-16 23:28N 01°16' E 103°47'0 0.1
2017-Nov-16 23:00N 01°16' E 103°47'1 1.2
2017-Nov-16 22:30N 01°16' E 103°47'3 5.7
2017-Nov-16 22:00N 01°13' E 103°48'5 9.7
2017-Nov-16 21:30N 01°13' E 103°53'2 4.9
2017-Nov-16 21:00N 01°14' E 103°55'4 8.7
2017-Nov-16 20:30N 01°15' E 103°59'610.7
2017-Nov-16 19:57N 01°16' E 104°05'  
2017-Nov-14 04:37N 21°47' E 114°21'222.4
2017-Nov-14 04:30N 21°50' E 114°21'1121.8
2017-Nov-14 04:00N 22°01' E 114°23'816.7
2017-Nov-14 03:30N 22°07' E 114°17'713.4
2017-Nov-14 02:59N 22°11' E 114°11'612.1
2017-Nov-14 02:30N 22°15' E 114°07'4 7.7
2017-Nov-14 01:56N 22°20' E 114°07'254 8.0
2017-Nov-12 18:08N 23°46' E 118°27'106321.9
2017-Nov-10 17:34N 34°03' E 134°56'218.1
2017-Nov-10 17:28N 34°05' E 134°57'715.6
2017-Nov-10 17:00N 34°12' E 134°58'611.7
2017-Nov-10 16:28N 34°18' E 134°59'818.0
2017-Nov-10 16:00N 34°25' E 135°04'919.1
2017-Nov-10 15:30N 34°32' E 135°13'714.6
2017-Nov-10 15:01N 34°39' E 135°16'1 2.3
2017-Nov-10 14:26N 34°39' E 135°15'0 0.0
2017-Nov-10 13:56N 34°39' E 135°15'0 0.0
2017-Nov-10 13:20N 34°39' E 135°15'0 0.0
2017-Nov-10 12:56N 34°39' E 135°15'0 0.0
2017-Nov-10 12:26N 34°39' E 135°15'0 0.0
2017-Nov-10 11:56N 34°39' E 135°15'0 0.0
2017-Nov-10 11:26N 34°39' E 135°15'0 0.0
2017-Nov-10 10:56N 34°39' E 135°15'0 0.0
2017-Nov-10 10:20N 34°39' E 135°15'0 0.0
2017-Nov-10 09:56N 34°39' E 135°15'0 0.0
2017-Nov-10 09:26N 34°39' E 135°15'0 0.0
2017-Nov-10 08:56N 34°39' E 135°15'0 0.0
2017-Nov-10 08:26N 34°39' E 135°15'0 0.0
2017-Nov-10 07:44N 34°39' E 135°15'0 0.0
2017-Nov-10 07:26N 34°39' E 135°15'0 0.0
2017-Nov-10 06:56N 34°39' E 135°15'0 0.0
2017-Nov-10 06:26N 34°39' E 135°15'0 0.0
2017-Nov-10 05:50N 34°39' E 135°15'0 0.0
2017-Nov-10 05:26N 34°39' E 135°15'0 0.0
2017-Nov-10 04:44N 34°39' E 135°15'0 0.0
2017-Nov-10 04:08N 34°39' E 135°15'0 0.0
2017-Nov-10 03:47N 34°39' E 135°15'0 0.2
2017-Nov-10 03:30N 34°39' E 135°15'2 4.1
2017-Nov-10 03:00N 34°38' E 135°17'4 7.8
2017-Nov-10 02:30N 34°34' E 135°16'713.8
2017-Nov-10 02:00N 34°29' E 135°10'917.5
2017-Nov-10 01:30N 34°23' E 135°03'917.6
2017-Nov-10 01:00N 34°15' E 134°59'612.2
2017-Nov-10 00:30N 34°08' E 134°60'  
Track history (hours):
 
Tides and Currents Weather Stations Pressure Air Temp Water Temp Dewpoint Dewpoint Depression Visibility Wind Speed Wind Dir Waves Ship Positions

MOL Gateway

Last reported at 2017-Nov-20 00:29 UTC. Time now 2017-Nov-22 10:45 UTC.
Position N 01°16' E 103°46'.

Length 275 m; draft 9.7 m.

Type: Ship (hazmat cat A). MMSI: 255805589.

Date/timePositionNaut miles runAvg speedWind from/ knotsBaromVisibWave heightAir tempDewpointWater temp
2017-Nov-20 00:29N 01°16' E 103°46'0 0.0
2017-Nov-19 23:58N 01°16' E 103°46'0 0.0
2017-Nov-19 23:27N 01°16' E 103°46'0 0.0
2017-Nov-19 22:55N 01°16' E 103°46'0 0.0
2017-Nov-19 22:28N 01°16' E 103°46'0 0.0
2017-Nov-19 21:59N 01°16' E 103°46'0 0.0
2017-Nov-19 21:27N 01°16' E 103°46'0 0.0
2017-Nov-19 20:58N 01°16' E 103°46'0 0.0
2017-Nov-19 20:28N 01°16' E 103°46'0 0.0
2017-Nov-19 20:00N 01°16' E 103°46'0 0.0
2017-Nov-19 19:30N 01°16' E 103°46'0 0.0
2017-Nov-19 18:59N 01°16' E 103°46'0 0.0
2017-Nov-19 18:30N 01°16' E 103°46'0 0.0
2017-Nov-19 18:00N 01°16' E 103°46'0 0.0
2017-Nov-19 17:28N 01°16' E 103°46'0 0.0
2017-Nov-19 16:55N 01°16' E 103°46'0 0.0
2017-Nov-19 16:28N 01°16' E 103°46'0 0.0
2017-Nov-19 15:58N 01°16' E 103°46'0 0.0
2017-Nov-19 15:28N 01°16' E 103°46'0 0.0
2017-Nov-19 14:59N 01°16' E 103°46'0 0.0
2017-Nov-19 14:26N 01°16' E 103°46'0 0.0
2017-Nov-19 13:56N 01°16' E 103°46'0 0.0
2017-Nov-19 13:31N 01°16' E 103°46'0 0.0
2017-Nov-19 12:59N 01°16' E 103°46'0 0.0
2017-Nov-19 12:28N 01°16' E 103°46'0 0.3
2017-Nov-19 12:01N 01°16' E 103°47'2 4.0
2017-Nov-19 11:30N 01°15' E 103°45'510.1
2017-Nov-19 11:00N 01°13' E 103°41'5 9.7
2017-Nov-19 10:29N 01°12' E 103°35'612.0
2017-Nov-19 10:00N 01°10' E 103°30'917.9
2017-Nov-19 09:30N 01°14' E 103°22'13 0.3
2017-Nov-17 17:07N 01°23' E 103°13'1019.2
2017-Nov-17 16:36N 01°17' E 103°21'218.5
2017-Nov-17 16:30N 01°16' E 103°22'917.9
2017-Nov-17 16:00N 01°13' E 103°31'713.8
2017-Nov-17 15:30N 01°12' E 103°38'3 5.7
2017-Nov-17 15:00N 01°13' E 103°40'510.3
2017-Nov-17 14:30N 01°16' E 103°44'2 5.0
2017-Nov-17 14:00N 01°16' E 103°47'0 0.5
2017-Nov-17 13:30N 01°16' E 103°47'0 0.0
2017-Nov-17 12:59N 01°16' E 103°47'0 0.0
2017-Nov-17 12:30N 01°16' E 103°47'0 0.0
2017-Nov-17 12:00N 01°16' E 103°47'0 0.0
2017-Nov-17 11:26N 01°16' E 103°47'0 0.0
2017-Nov-17 10:58N 01°16' E 103°47'0 0.0
2017-Nov-17 10:28N 01°16' E 103°47'0 0.0
2017-Nov-17 10:00N 01°16' E 103°47'0 0.0
2017-Nov-17 09:28N 01°16' E 103°47'0 0.0
2017-Nov-17 09:00N 01°16' E 103°47'0 0.0
2017-Nov-17 08:31N 01°16' E 103°47'0 0.0
2017-Nov-17 07:30N 01°16' E 103°47'0 0.0
2017-Nov-17 06:56N 01°16' E 103°47'0 0.0
2017-Nov-17 06:28N 01°16' E 103°47'0 0.0
2017-Nov-17 05:58N 01°16' E 103°47'0 0.0
2017-Nov-17 05:30N 01°16' E 103°47'0 0.0
2017-Nov-17 04:59N 01°16' E 103°47'0 0.0
2017-Nov-17 04:29N 01°16' E 103°47'0 0.0
2017-Nov-17 03:50N 01°16' E 103°47'0 0.0
2017-Nov-17 03:28N 01°16' E 103°47'0 0.0
2017-Nov-17 02:57N 01°16' E 103°47'0 0.0
2017-Nov-17 02:30N 01°16' E 103°47'0 0.0
2017-Nov-17 01:59N 01°16' E 103°47'0 0.0
2017-Nov-17 01:30N 01°16' E 103°47'0 0.0
2017-Nov-17 00:58N 01°16' E 103°47'0 0.0
2017-Nov-17 00:30N 01°16' E 103°47'0 0.0
2017-Nov-16 23:56N 01°16' E 103°47'0 0.0
2017-Nov-16 23:28N 01°16' E 103°47'0 0.1
2017-Nov-16 23:00N 01°16' E 103°47'1 1.2
2017-Nov-16 22:30N 01°16' E 103°47'3 5.7
2017-Nov-16 22:00N 01°13' E 103°48'5 9.7
2017-Nov-16 21:30N 01°13' E 103°53'2 4.9
2017-Nov-16 21:00N 01°14' E 103°55'4 8.7
2017-Nov-16 20:30N 01°15' E 103°59'610.7
2017-Nov-16 19:57N 01°16' E 104°05'  
2017-Nov-14 04:37N 21°47' E 114°21'222.4
2017-Nov-14 04:30N 21°50' E 114°21'1121.8
2017-Nov-14 04:00N 22°01' E 114°23'816.7
2017-Nov-14 03:30N 22°07' E 114°17'713.4
2017-Nov-14 02:59N 22°11' E 114°11'612.1
2017-Nov-14 02:30N 22°15' E 114°07'4 7.7
2017-Nov-14 01:56N 22°20' E 114°07'254 8.0
2017-Nov-12 18:08N 23°46' E 118°27'106321.9
2017-Nov-10 17:34N 34°03' E 134°56'218.1
2017-Nov-10 17:28N 34°05' E 134°57'715.6
2017-Nov-10 17:00N 34°12' E 134°58'611.7
2017-Nov-10 16:28N 34°18' E 134°59'818.0
2017-Nov-10 16:00N 34°25' E 135°04'919.1
2017-Nov-10 15:30N 34°32' E 135°13'714.6
2017-Nov-10 15:01N 34°39' E 135°16'1 2.3
2017-Nov-10 14:26N 34°39' E 135°15'0 0.0
2017-Nov-10 13:56N 34°39' E 135°15'0 0.0
2017-Nov-10 13:20N 34°39' E 135°15'0 0.0
2017-Nov-10 12:56N 34°39' E 135°15'0 0.0
2017-Nov-10 12:26N 34°39' E 135°15'0 0.0
2017-Nov-10 11:56N 34°39' E 135°15'0 0.0
2017-Nov-10 11:26N 34°39' E 135°15'0 0.0
2017-Nov-10 10:56N 34°39' E 135°15'0 0.0
2017-Nov-10 10:20N 34°39' E 135°15'0 0.0
2017-Nov-10 09:56N 34°39' E 135°15'0 0.0
2017-Nov-10 09:26N 34°39' E 135°15'0 0.0
2017-Nov-10 08:56N 34°39' E 135°15'0 0.0
2017-Nov-10 08:26N 34°39' E 135°15'0 0.0
2017-Nov-10 07:44N 34°39' E 135°15'0 0.0
2017-Nov-10 07:26N 34°39' E 135°15'0 0.0
2017-Nov-10 06:56N 34°39' E 135°15'0 0.0
2017-Nov-10 06:26N 34°39' E 135°15'0 0.0
2017-Nov-10 05:50N 34°39' E 135°15'0 0.0
2017-Nov-10 05:26N 34°39' E 135°15'0 0.0
2017-Nov-10 04:44N 34°39' E 135°15'0 0.0
2017-Nov-10 04:08N 34°39' E 135°15'0 0.0
2017-Nov-10 03:47N 34°39' E 135°15'0 0.2
2017-Nov-10 03:30N 34°39' E 135°15'2 4.1
2017-Nov-10 03:00N 34°38' E 135°17'4 7.8
2017-Nov-10 02:30N 34°34' E 135°16'713.8
2017-Nov-10 02:00N 34°29' E 135°10'917.5
2017-Nov-10 01:30N 34°23' E 135°03'917.6
2017-Nov-10 01:00N 34°15' E 134°59'612.2
2017-Nov-10 00:30N 34°08' E 134°60'  

Dump ship's entire track history